createdAt,value
2016-02-24T00:00:59.833Z,82.43
2016-02-24T00:01:59.850Z,82.05
2016-02-24T00:02:59.838Z,82.43
2016-02-24T00:03:59.825Z,82.05
2016-02-24T00:04:59.828Z,81.95
2016-02-24T00:05:59.830Z,81.86
2016-02-24T00:06:59.833Z,81.2
2016-02-24T00:07:59.820Z,81.01
2016-02-24T00:08:59.807Z,81.01
2016-02-24T00:09:59.810Z,81.86
2016-02-24T00:10:59.812Z,81.57
2016-02-24T00:11:59.799Z,81.95
2016-02-24T00:12:59.801Z,80.91
2016-02-24T00:13:59.789Z,81.1
2016-02-24T00:14:59.807Z,81.01
2016-02-24T00:15:59.778Z,80.25
2016-02-24T00:16:59.781Z,80.44
2016-02-24T00:17:59.784Z,80.91
2016-02-24T00:18:59.770Z,80.44
2016-02-24T00:19:59.790Z,79.39
2016-02-24T00:20:59.807Z,78.16
2016-02-24T00:21:59.764Z,78.92
2016-02-24T00:22:59.766Z,78.54
2016-02-24T00:23:59.770Z,79.02
2016-02-24T00:24:59.756Z,79.68
2016-02-24T00:25:59.759Z,79.68
2016-02-24T00:26:59.762Z,79.39
2016-02-24T00:27:59.748Z,79.11
2016-02-24T00:28:59.736Z,78.92
2016-02-24T00:29:59.739Z,79.96
2016-02-24T00:30:59.741Z,79.3
2016-02-24T00:31:59.744Z,78.16
2016-02-24T00:32:59.731Z,78.35
2016-02-24T00:33:59.733Z,78.64
2016-02-24T00:34:59.735Z,79.21
2016-02-24T00:35:59.728Z,78.83
2016-02-24T00:36:59.715Z,78.73
2016-02-24T00:37:59.718Z,78.54
2016-02-24T00:38:59.720Z,79.21
2016-02-24T00:39:59.754Z,79.96
2016-02-24T00:40:59.710Z,79.87
2016-02-24T00:41:59.712Z,80.06
2016-02-24T00:42:59.699Z,79.96
2016-02-24T00:43:59.687Z,80.25
2016-02-24T00:44:59.705Z,79.87
2016-02-24T00:45:59.693Z,79.3
2016-02-24T00:46:59.695Z,79.39
2016-02-24T00:47:59.682Z,79.02
2016-02-24T00:48:59.685Z,79.21
2016-02-24T00:49:59.687Z,78.92
2016-02-24T00:50:59.690Z,79.02
2016-02-24T00:51:59.692Z,79.39
2016-02-24T00:52:59.681Z,80.34
2016-02-24T00:53:59.526Z,81.48
2016-02-24T00:54:59.654Z,82.24
2016-02-24T00:55:59.672Z,82.9
2016-02-24T00:56:59.659Z,84.32
2016-02-24T00:57:59.661Z,84.42
2016-02-24T00:58:59.650Z,83.85
2016-02-24T00:59:59.652Z,84.32
2016-02-24T01:00:59.638Z,83.75
2016-02-24T01:01:59.642Z,83.18
2016-02-24T01:02:59.644Z,81.86
2016-02-24T01:03:59.647Z,82.43
2016-02-24T01:04:59.634Z,82.43
2016-02-24T01:05:59.653Z,81.57
2016-02-24T01:06:59.629Z,80.06
2016-02-24T01:07:59.647Z,80.25
2016-02-24T01:08:59.634Z,80.06
2016-02-24T01:09:59.637Z,79.49
2016-02-24T01:10:59.608Z,79.21
2016-02-24T01:11:59.610Z,79.77
2016-02-24T01:12:59.613Z,79.39
2016-02-24T01:13:59.600Z,79.11
2016-02-24T01:14:59.619Z,79.49
2016-02-24T01:15:59.606Z,79.58
2016-02-24T01:16:59.592Z,79.58
2016-02-24T01:17:59.580Z,80.15
2016-02-24T01:18:59.598Z,80.34
2016-02-24T01:19:59.586Z,79.96
2016-02-24T01:20:59.572Z,80.63
2016-02-24T01:21:59.575Z,79.87
2016-02-24T01:22:59.609Z,79.96
2016-02-24T01:23:59.565Z,79.96
2016-02-24T01:24:59.567Z,80.25
2016-02-24T01:25:59.570Z,80.25
2016-02-24T01:26:59.572Z,80.15
2016-02-24T01:27:59.576Z,80.53
2016-02-24T01:28:59.578Z,80.44
2016-02-24T01:29:59.581Z,80.63
2016-02-24T01:30:59.568Z,81.01
2016-02-24T01:31:59.539Z,80.06
2016-02-24T01:32:59.542Z,80.34
2016-02-24T01:33:59.545Z,80.53
2016-02-24T01:34:59.532Z,80.06
2016-02-24T01:35:59.535Z,80.34
2016-02-24T01:36:59.537Z,80.15
2016-02-24T01:37:59.525Z,80.44
2016-02-24T01:38:59.543Z,80.06
2016-02-24T01:39:59.515Z,80.91
2016-02-24T01:40:59.517Z,80.44
2016-02-24T01:41:59.520Z,80.06
2016-02-24T01:42:59.522Z,79.96
2016-02-24T01:43:59.526Z,79.77
2016-02-24T01:44:59.512Z,80.25
2016-02-24T01:45:59.498Z,81.2
2016-02-24T01:46:59.501Z,81.01
2016-02-24T01:47:59.504Z,80.91
2016-02-24T01:48:59.492Z,80.91
2016-02-24T01:49:59.509Z,81.29
2016-02-24T01:50:59.481Z,81.1
2016-02-24T01:51:59.484Z,81.29
2016-02-24T01:52:59.471Z,81.2
2016-02-24T01:53:59.474Z,81.1
2016-02-24T01:54:59.476Z,81.38
2016-02-24T01:55:59.463Z,81.01
2016-02-24T01:56:59.467Z,81.29
2016-02-24T01:57:59.469Z,81.38
2016-02-24T01:58:59.456Z,80.82
2016-02-24T01:59:59.459Z,80.91
2016-02-24T02:00:59.492Z,81.01
2016-02-24T02:01:59.449Z,80.34
2016-02-24T02:02:59.326Z,80.25
2016-02-24T02:03:59.438Z,81.29
2016-02-24T02:04:59.440Z,81.01
2016-02-24T02:05:59.443Z,80.63
2016-02-24T02:06:59.430Z,80.06
2016-02-24T02:07:59.449Z,79.3
2016-02-24T02:08:59.436Z,79.21
2016-02-24T02:09:59.423Z,80.06
2016-02-24T02:10:59.426Z,79.49
2016-02-24T02:11:59.429Z,79.39
2016-02-24T02:12:59.416Z,79.3
2016-02-24T02:13:59.402Z,79.39
2016-02-24T02:14:59.404Z,79.3
2016-02-24T02:15:59.408Z,79.21
2016-02-24T02:16:59.410Z,79.39
2016-02-24T02:17:59.413Z,79.21
2016-02-24T02:18:59.401Z,78.73
2016-02-24T02:19:59.403Z,79.11
2016-02-24T02:20:59.406Z,79.11
2016-02-24T02:21:59.393Z,79.11
2016-02-24T02:22:59.380Z,79.02
2016-02-24T02:23:59.383Z,79.21
2016-02-24T02:24:59.369Z,79.25
2016-02-24T02:25:59.389Z,78.73
2016-02-24T02:26:59.375Z,79.11
2016-02-24T02:27:59.378Z,79.02
2016-02-24T02:28:59.381Z,79.68
2016-02-24T02:29:59.368Z,79.34
2016-02-24T02:30:59.355Z,78.87
2016-02-24T02:31:59.373Z,79.25
2016-02-24T02:32:59.376Z,78.87
2016-02-24T02:33:59.363Z,78.92
2016-02-24T02:34:59.350Z,78.49
2016-02-24T02:35:59.352Z,78.77
2016-02-24T02:36:59.339Z,79.02
2016-02-24T02:37:59.341Z,79.02
2016-02-24T02:38:59.344Z,79.82
2016-02-24T02:39:59.332Z,80.1
2016-02-24T02:40:59.335Z,80.25
2016-02-24T02:41:59.337Z,80.1
2016-02-24T02:42:59.340Z,79.87
2016-02-24T02:43:59.327Z,79.68
2016-02-24T02:44:59.314Z,80.06
2016-02-24T02:45:59.317Z,79.39
2016-02-24T02:46:59.320Z,79.58
2016-02-24T02:47:59.229Z,80.25
2016-02-24T02:48:59.309Z,79.96
2016-02-24T02:49:59.312Z,79.96
2016-02-24T02:50:59.298Z,79.49
2016-02-24T02:51:59.318Z,79.3
2016-02-24T02:52:59.320Z,78.83
2016-02-24T02:53:59.291Z,79.49
2016-02-24T02:54:59.295Z,79.87
2016-02-24T02:55:59.312Z,79.77
2016-02-24T02:56:59.284Z,80.25
2016-02-24T02:57:59.287Z,79.96
2016-02-24T02:58:59.273Z,80.44
2016-02-24T02:59:59.291Z,80.34
2016-02-24T03:00:59.263Z,80.06
2016-02-24T03:01:59.281Z,80.25
2016-02-24T03:02:59.300Z,79.96
2016-02-24T03:03:59.271Z,80.06
2016-02-24T03:04:59.352Z,80.53
2016-02-24T03:05:59.261Z,80.53
2016-02-24T03:06:59.263Z,81.01
2016-02-24T03:07:59.252Z,81.38
2016-02-24T03:08:59.254Z,81.57
2016-02-24T03:09:59.257Z,81.38
2016-02-24T03:10:59.244Z,81.76
2016-02-24T03:11:59.246Z,82.43
2016-02-24T03:12:59.233Z,82.05
2016-02-24T03:13:59.252Z,81.76
2016-02-24T03:14:59.223Z,81.48
2016-02-24T03:15:59.241Z,81.38
2016-02-24T03:16:59.230Z,82.05
2016-02-24T03:17:59.248Z,82.05
2016-02-24T03:18:59.219Z,82.43
2016-02-24T03:19:59.221Z,82.33
2016-02-24T03:20:59.209Z,82.33
2016-02-24T03:21:59.211Z,83.56
2016-02-24T03:22:59.214Z,83.47
2016-02-24T03:23:59.201Z,82.71
2016-02-24T03:24:59.204Z,82.62
2016-02-24T03:25:59.206Z,82.9
2016-02-24T03:26:59.194Z,83
2016-02-24T03:27:59.196Z,82.9
2016-02-24T03:28:59.199Z,83.56
2016-02-24T03:29:59.186Z,83.37
2016-02-24T03:30:59.173Z,83.56
2016-02-24T03:31:59.176Z,83.66
2016-02-24T03:32:59.178Z,83.28
2016-02-24T03:33:59.181Z,83.37
2016-02-24T03:34:59.184Z,83.37
2016-02-24T03:35:59.170Z,83.66
2016-02-24T03:36:59.158Z,84.8
2016-02-24T03:37:59.161Z,84.13
2016-02-24T03:38:59.164Z,84.23
2016-02-24T03:39:59.164Z,84.04
2016-02-24T03:40:59.139Z,83.94
2016-02-24T03:41:59.145Z,84.99
2016-02-24T03:42:59.103Z,85.84
2016-02-24T03:43:59.110Z,85.84
2016-02-24T03:44:59.070Z,85.27
2016-02-24T03:45:59.101Z,85.46
2016-02-24T03:46:59.068Z,85.08
2016-02-24T03:47:59.066Z,85.36
2016-02-24T03:48:59.049Z,85.36
2016-02-24T03:49:59.063Z,84.8
2016-02-24T03:50:59.033Z,84.61
2016-02-24T03:51:59.050Z,84.42
2016-02-24T03:52:59.035Z,84.42
2016-02-24T03:53:59.021Z,84.51
2016-02-24T03:54:59.022Z,83.94
2016-02-24T03:55:59.024Z,84.23
2016-02-24T03:56:59.011Z,83.94
2016-02-24T03:57:59.012Z,83.66
2016-02-24T03:58:59.014Z,84.23
2016-02-24T03:59:59.016Z,84.04
2016-02-24T04:00:59.004Z,83.94
2016-02-24T04:01:59.006Z,83.94
2016-02-24T04:02:59.009Z,84.13
2016-02-24T04:03:59.011Z,83.37
2016-02-24T04:04:58.988Z,83.47
2016-02-24T04:05:58.975Z,83.47
2016-02-24T04:06:58.978Z,83.47
2016-02-24T04:07:58.981Z,83.37
2016-02-24T04:08:58.967Z,84.42
2016-02-24T04:09:58.986Z,84.42
2016-02-24T04:10:58.973Z,84.7
2016-02-24T04:11:58.975Z,84.51
2016-02-24T04:12:58.978Z,84.8
2016-02-24T04:13:58.962Z,84.8
2016-02-24T04:14:58.965Z,85.08
2016-02-24T04:15:58.952Z,85.55
2016-02-24T04:16:58.955Z,85.55
2016-02-24T04:17:58.942Z,85.93
2016-02-24T04:18:58.960Z,85.93
2016-02-24T04:19:58.947Z,85.08
2016-02-24T04:20:58.934Z,85.93
2016-02-24T04:21:58.938Z,85.84
2016-02-24T04:22:58.940Z,86.03
2016-02-24T04:23:58.943Z,85.84
2016-02-24T04:24:58.930Z,85.74
2016-02-24T04:25:58.916Z,85.46
2016-02-24T04:26:58.919Z,85.17
2016-02-24T04:27:58.907Z,86.12
2016-02-24T04:28:58.910Z,86.03
2016-02-24T04:29:58.912Z,86.41
2016-02-24T04:30:58.914Z,86.79
2016-02-24T04:31:58.902Z,85.93
2016-02-24T04:32:58.888Z,86.03
2016-02-24T04:33:58.907Z,86.69
2016-02-24T04:34:58.894Z,86.5
2016-02-24T04:35:58.881Z,86.5
2016-02-24T04:36:58.914Z,86.79
2016-02-24T04:37:58.887Z,86.69
2016-02-24T04:38:58.873Z,85.17
2016-02-24T04:39:58.892Z,84.89
2016-02-24T04:40:58.878Z,85.08
2016-02-24T04:41:58.897Z,85.08
2016-02-24T04:42:58.869Z,85.08
2016-02-24T04:43:58.872Z,84.61
2016-02-24T04:44:58.859Z,84.7
2016-02-24T04:45:58.861Z,85.08
2016-02-24T04:46:58.847Z,84.89
2016-02-24T04:47:58.851Z,84.8
2016-02-24T04:48:58.853Z,84.89
2016-02-24T04:49:58.856Z,84.32
2016-02-24T04:50:58.843Z,84.42
2016-02-24T04:51:58.846Z,84.99
2016-02-24T04:52:58.864Z,84.89
2016-02-24T04:53:58.823Z,84.7
2016-02-24T04:54:58.827Z,85.17
2016-02-24T04:55:58.829Z,85.36
2016-02-24T04:56:58.816Z,85.17
2016-02-24T04:57:58.819Z,84.99
2016-02-24T04:58:58.822Z,84.89
2016-02-24T04:59:58.808Z,85.84
2016-02-24T05:00:58.811Z,85.89
2016-02-24T05:01:58.814Z,85.74
2016-02-24T05:02:58.802Z,85.7
2016-02-24T05:03:58.804Z,85.89
2016-02-24T05:04:58.822Z,86.18
2016-02-24T05:05:58.794Z,86.18
2016-02-24T05:06:58.812Z,86.74
2016-02-24T05:07:58.783Z,86.27
2016-02-24T05:08:58.786Z,86.65
2016-02-24T05:09:58.773Z,87.5
2016-02-24T05:10:58.776Z,87.21
2016-02-24T05:11:58.779Z,86.83
2016-02-24T05:12:58.766Z,87.12
2016-02-24T05:13:58.768Z,87.4
2016-02-24T05:14:58.771Z,87.78
2016-02-24T05:15:58.774Z,87.98
2016-02-24T05:16:58.761Z,87.59
2016-02-24T05:17:58.748Z,88.07
2016-02-24T05:18:58.735Z,88.45
2016-02-24T05:19:58.737Z,88.26
2016-02-24T05:20:58.740Z,87.69
2016-02-24T05:21:58.727Z,87.5
2016-02-24T05:22:58.731Z,88.35
2016-02-24T05:23:58.561Z,88.07
2016-02-24T05:24:58.720Z,88.35
2016-02-24T05:25:58.723Z,88.26
2016-02-24T05:26:58.725Z,88.35
2016-02-24T05:27:58.712Z,88.45
2016-02-24T05:28:58.715Z,88.17
2016-02-24T05:29:58.702Z,87.69
2016-02-24T05:30:58.689Z,88.35
2016-02-24T05:31:58.691Z,88.45
2016-02-24T05:32:58.694Z,88.17
2016-02-24T05:33:58.681Z,88.35
2016-02-24T05:34:58.683Z,88.45
2016-02-24T05:35:58.687Z,88.26
2016-02-24T05:36:58.689Z,88.64
2016-02-24T05:37:58.676Z,88.17
2016-02-24T05:38:58.680Z,88.54
2016-02-24T05:39:58.666Z,88.45
2016-02-24T05:40:58.654Z,88.26
2016-02-24T05:41:58.656Z,88.35
2016-02-24T05:42:58.659Z,88.35
2016-02-24T05:43:58.662Z,88.07
2016-02-24T05:44:58.648Z,87.5
2016-02-24T05:45:58.683Z,87.98
2016-02-24T05:46:58.654Z,88.35
2016-02-24T05:47:58.640Z,88.64
2016-02-24T05:48:58.628Z,88.35
2016-02-24T05:49:58.646Z,88.17
2016-02-24T05:50:58.618Z,88.35
2016-02-24T05:51:58.620Z,88.26
2016-02-24T05:52:58.623Z,88.26
2016-02-24T05:53:58.610Z,88.07
2016-02-24T05:54:58.629Z,88.35
2016-02-24T05:55:58.601Z,88.17
2016-02-24T05:56:58.603Z,89.01
2016-02-24T05:57:58.606Z,88.64
2016-02-24T05:58:58.608Z,89.11
2016-02-24T05:59:58.595Z,88.82
2016-02-24T06:00:58.582Z,88.92
2016-02-24T06:01:58.585Z,89.3
2016-02-24T06:02:58.571Z,88.82
2016-02-24T06:03:58.591Z,88.45
2016-02-24T06:04:58.577Z,88.35
2016-02-24T06:05:58.564Z,88.54
2016-02-24T06:06:58.567Z,88.07
2016-02-24T06:07:58.554Z,88.54
2016-02-24T06:08:58.573Z,88.26
2016-02-24T06:09:58.561Z,88.26
2016-02-24T06:10:58.547Z,88.35
2016-02-24T06:11:58.550Z,88.35
2016-02-24T06:12:58.553Z,89.01
2016-02-24T06:13:58.540Z,89.11
2016-02-24T06:14:58.558Z,88.73
2016-02-24T06:15:58.530Z,89.01
2016-02-24T06:16:58.533Z,89.11
2016-02-24T06:17:58.535Z,89.01
2016-02-24T06:18:58.538Z,89.11
2016-02-24T06:19:58.509Z,89.3
2016-02-24T06:20:58.528Z,89.2
2016-02-24T06:21:58.514Z,89.2
2016-02-24T06:22:58.517Z,89.77
2016-02-24T06:23:58.505Z,89.96
2016-02-24T06:24:58.522Z,89.87
2016-02-24T06:25:58.510Z,89.77
2016-02-24T06:26:58.496Z,90.06
2016-02-24T06:27:58.499Z,89.96
2016-02-24T06:28:58.486Z,90.06
2016-02-24T06:29:58.473Z,89.2
2016-02-24T06:30:58.492Z,89.68
2016-02-24T06:31:58.495Z,89.2
2016-02-24T06:32:58.482Z,89.49
2016-02-24T06:33:58.468Z,89.2
2016-02-24T06:34:58.471Z,89.11
2016-02-24T06:35:58.442Z,89.01
2016-02-24T06:36:58.446Z,89.11
2016-02-24T06:37:58.479Z,88.64
2016-02-24T06:38:58.451Z,88.07
2016-02-24T06:39:58.437Z,87.69
2016-02-24T06:40:58.440Z,87.69
2016-02-24T06:41:58.443Z,87.12
2016-02-24T06:42:58.445Z,87.88
2016-02-24T06:43:58.336Z,87.31
2016-02-24T06:44:58.445Z,87.12
2016-02-24T06:45:58.400Z,86.83
2016-02-24T06:47:00.473Z,87.31
2016-02-24T06:47:58.405Z,87.98
2016-02-24T06:48:58.407Z,87.4
2016-02-24T06:49:58.394Z,87.54
2016-02-24T06:50:58.382Z,87.83
2016-02-24T06:51:58.385Z,87.07
2016-02-24T06:52:58.387Z,86.6
2016-02-24T06:53:58.374Z,86.5
2016-02-24T06:54:58.377Z,86.6
2016-02-24T06:55:58.364Z,86.6
2016-02-24T06:56:58.382Z,86.88
2016-02-24T06:57:58.212Z,86.6
2016-02-24T06:58:58.357Z,86.31
2016-02-24T06:59:58.359Z,86.03
2016-02-24T07:00:58.362Z,85.65
2016-02-24T07:01:58.365Z,85.93
2016-02-24T07:02:58.336Z,85.08
2016-02-24T07:03:58.338Z,84.99
2016-02-24T07:04:58.340Z,84.99
2016-02-24T07:05:58.360Z,84.8
2016-02-24T07:06:58.331Z,85.08
2016-02-24T07:07:58.333Z,85.17
2016-02-24T07:08:58.337Z,85.17
2016-02-24T07:09:58.328Z,84.89
2016-02-24T07:10:58.346Z,84.89
2016-02-24T07:11:58.318Z,84.61
2016-02-24T07:12:58.320Z,84.61
2016-02-24T07:13:58.308Z,84.99
2016-02-24T07:14:58.310Z,85.08
2016-02-24T07:15:58.297Z,84.89
2016-02-24T07:16:58.300Z,84.7
2016-02-24T07:17:58.302Z,84.7
2016-02-24T07:18:58.306Z,84.89
2016-02-24T07:19:58.293Z,84.89
2016-02-24T07:20:58.295Z,84.42
2016-02-24T07:21:58.282Z,84.42
2016-02-24T07:22:58.285Z,84.23
2016-02-24T07:23:58.288Z,84.89
2016-02-24T07:24:58.274Z,84.8
2016-02-24T07:25:58.277Z,84.99
2016-02-24T07:26:58.265Z,85.08
2016-02-24T07:27:58.282Z,84.7
2016-02-24T07:28:58.271Z,85.17
2016-02-24T07:29:58.257Z,84.51
2016-02-24T07:30:58.260Z,84.89
2016-02-24T07:31:58.340Z,84.51
2016-02-24T07:32:58.249Z,84.23
2016-02-24T07:33:58.299Z,83.75
2016-02-24T07:34:58.254Z,83.13
2016-02-24T07:35:58.257Z,82.94
2016-02-24T07:36:58.244Z,81.24
2016-02-24T07:37:58.231Z,80.14
2016-02-24T07:38:58.234Z,79.85
2016-02-24T07:39:58.236Z,79.28
2016-02-24T07:40:58.239Z,79.19
2016-02-24T07:41:58.227Z,79.19
2016-02-24T07:42:58.229Z,79.19
2016-02-24T07:43:58.216Z,79.57
2016-02-24T07:44:58.219Z,79.44
2016-02-24T07:45:58.222Z,80
2016-02-24T07:46:58.208Z,80.48
2016-02-24T07:47:58.211Z,81.05
2016-02-24T07:48:58.230Z,81.71
2016-02-24T07:49:58.217Z,81.24
2016-02-24T07:50:58.219Z,81.99
2016-02-24T07:51:58.207Z,80.86
2016-02-24T07:52:58.210Z,81.24
2016-02-24T07:53:58.213Z,81.24
2016-02-24T07:54:58.199Z,80.14
2016-02-24T07:55:58.186Z,78.91
2016-02-24T07:56:58.189Z,77.77
2016-02-24T07:57:58.191Z,77.96
2016-02-24T07:58:58.194Z,77.29
2016-02-24T07:59:58.197Z,76.95
2016-02-24T08:00:58.184Z,76.95
2016-02-24T08:01:58.187Z,75.81
2016-02-24T08:02:58.189Z,75.62
2016-02-24T08:03:58.177Z,74.58
2016-02-24T08:04:58.179Z,74.49
2016-02-24T08:05:58.166Z,72.78
2016-02-24T08:06:58.170Z,73.19
2016-02-24T08:07:58.203Z,72.34
2016-02-24T08:08:58.175Z,72.44
2016-02-24T08:09:58.177Z,71.77
2016-02-24T08:10:58.164Z,71.01
2016-02-24T08:11:58.167Z,68.67
2016-02-24T08:12:58.170Z,65.86
2016-02-24T08:13:58.188Z,64.27
2016-02-24T08:14:58.222Z,61.45
2016-02-24T08:15:58.224Z,59.29
2016-02-24T08:16:58.180Z,57.58
2016-02-24T08:17:58.166Z,56.94
2016-02-24T08:18:58.185Z,56.09
2016-02-24T08:19:58.172Z,53.83
2016-02-24T08:20:58.175Z,52.04
2016-02-24T08:21:58.193Z,50.92
2016-02-24T08:22:58.180Z,50.26
2016-02-24T08:23:58.183Z,49.68
2016-02-24T08:24:58.218Z,48.94
2016-02-24T08:25:58.204Z,47.8
2016-02-24T08:26:58.207Z,46.47
2016-02-24T08:27:58.210Z,44.96
2016-02-24T08:28:58.212Z,45.06
2016-02-24T08:29:58.216Z,45.7
2016-02-24T08:30:58.234Z,46.66
2016-02-24T08:31:58.220Z,49.02
2016-02-24T08:32:58.239Z,49.3
2016-02-24T08:33:58.242Z,49.78
2016-02-24T08:34:58.245Z,48.92
2016-02-24T08:35:58.247Z,49.02
2016-02-24T08:36:58.250Z,49.76
2016-02-24T08:37:58.253Z,50.32
2016-02-24T08:38:58.255Z,50.71
2016-02-24T08:39:58.273Z,51.82
2016-02-24T08:40:58.276Z,53.61
2016-02-24T08:41:58.278Z,55.96
2016-02-24T08:42:58.281Z,58.22
2016-02-24T08:43:58.284Z,59.14
2016-02-24T08:44:58.286Z,60.38
2016-02-24T08:45:58.289Z,61.29
2016-02-24T08:46:58.292Z,62.24
2016-02-24T08:47:58.295Z,63.39
2016-02-24T08:48:58.297Z,64.14
2016-02-24T08:49:58.316Z,63.2
2016-02-24T08:50:58.303Z,63.29
2016-02-24T08:51:58.305Z,62.81
2016-02-24T08:52:58.308Z,63.45
2016-02-24T08:53:58.311Z,63.92
2016-02-24T08:54:58.329Z,64.97
2016-02-24T08:55:58.316Z,63.64
2016-02-24T08:56:58.319Z,64.75
2016-02-24T08:57:58.338Z,65.31
2016-02-24T08:58:58.324Z,65.03
2016-02-24T08:59:58.343Z,65.79
2016-02-24T09:00:58.330Z,68.07
2016-02-24T09:01:58.332Z,67.12
2016-02-24T09:02:58.335Z,67.02
2016-02-24T09:03:58.338Z,68.13
2016-02-24T09:04:58.340Z,67.27
2016-02-24T09:05:58.343Z,67.46
2016-02-24T09:06:58.331Z,67.37
2016-02-24T09:07:58.333Z,67.27
2016-02-24T09:08:58.351Z,66.86
2016-02-24T09:09:58.339Z,67.14
2016-02-24T09:10:58.342Z,67.62
2016-02-24T09:11:58.328Z,67.52
2016-02-24T09:12:58.347Z,68.1
2016-02-24T09:13:58.334Z,69.23
2016-02-24T09:14:58.336Z,69.99
2016-02-24T09:15:58.322Z,69.99
2016-02-24T09:16:58.326Z,69.99
2016-02-24T09:17:58.328Z,70.37
2016-02-24T09:18:58.331Z,70.47
2016-02-24T09:19:58.334Z,70.28
2016-02-24T09:20:58.321Z,70.28
2016-02-24T09:21:58.324Z,70.84
2016-02-24T09:22:58.327Z,71.41
2016-02-24T09:23:58.313Z,71.8
2016-02-24T09:24:58.316Z,70.47
2016-02-24T09:25:58.318Z,70.09
2016-02-24T09:26:58.322Z,70.28
2016-02-24T09:27:58.324Z,70.84
2016-02-24T09:28:58.311Z,71.32
2016-02-24T09:29:58.314Z,70.56
2016-02-24T09:30:58.316Z,70.28
2016-02-24T09:31:58.319Z,70.75
2016-02-24T09:32:58.322Z,70.18
2016-02-24T09:33:58.309Z,70.84
2016-02-24T09:34:58.311Z,70.56
2016-02-24T09:35:58.329Z,71.8
2016-02-24T09:36:58.301Z,72.45
2016-02-24T09:37:58.304Z,74.07
2016-02-24T09:38:58.307Z,74.35
2016-02-24T09:39:58.294Z,75.31
2016-02-24T09:40:58.297Z,75.11
2016-02-24T09:41:58.299Z,75.59
2016-02-24T09:42:58.303Z,75.49
2016-02-24T09:43:58.289Z,75.49
2016-02-24T09:44:58.291Z,75.68
2016-02-24T09:45:58.295Z,75.96
2016-02-24T09:46:58.281Z,76.25
2016-02-24T09:47:58.300Z,76.25
2016-02-24T09:48:58.287Z,76.73
2016-02-24T09:49:58.274Z,76.68
2016-02-24T09:50:58.277Z,76.78
2016-02-24T09:51:58.280Z,77.54
2016-02-24T09:52:58.266Z,78.2
2016-02-24T09:53:58.269Z,78.11
2016-02-24T09:54:58.272Z,77.35
2016-02-24T09:55:58.259Z,77.01
2016-02-24T09:56:58.261Z,76.92
2016-02-24T09:57:58.264Z,76.25
2016-02-24T09:58:58.252Z,76.15
2016-02-24T09:59:58.254Z,76.34
2016-02-24T10:00:58.257Z,76.34
2016-02-24T10:01:58.259Z,75.96
2016-02-24T10:02:58.246Z,75.87
2016-02-24T10:03:58.248Z,75.4
2016-02-24T10:04:58.252Z,75.49
2016-02-24T10:05:58.254Z,74.92
2016-02-24T10:06:58.257Z,75.21
2016-02-24T10:07:58.260Z,75.31
2016-02-24T10:08:58.247Z,74.73
2016-02-24T10:09:58.250Z,74.16
2016-02-24T10:10:58.237Z,73.79
2016-02-24T10:11:58.239Z,74.45
2016-02-24T10:12:58.242Z,73.79
2016-02-24T10:13:58.307Z,73.97
2016-02-24T10:14:58.232Z,73.69
2016-02-24T10:15:58.234Z,73.31
2016-02-24T10:16:58.237Z,72.74
2016-02-24T10:17:58.225Z,73.03
2016-02-24T10:18:58.242Z,72.93
2016-02-24T10:19:58.230Z,73.31
2016-02-24T10:20:58.217Z,72.78
2016-02-24T10:21:58.219Z,72.68
2016-02-24T10:22:58.238Z,72.02
2016-02-24T10:23:58.225Z,71.36
2016-02-24T10:24:58.211Z,70.98
2016-02-24T10:25:58.214Z,70.69
2016-02-24T10:26:58.217Z,70.21
2016-02-24T10:27:58.219Z,68.98
2016-02-24T10:28:58.207Z,69.27
2016-02-24T10:29:58.210Z,69.27
2016-02-24T10:30:58.196Z,69.27
2016-02-24T10:31:58.199Z,68.89
2016-02-24T10:32:58.202Z,68.7
2016-02-24T10:33:58.204Z,68.32
2016-02-24T10:34:58.208Z,68.7
2016-02-24T10:35:58.210Z,68.13
2016-02-24T10:36:58.198Z,68.44
2016-02-24T10:37:58.200Z,65.98
2016-02-24T10:38:58.203Z,64.94
2016-02-24T10:39:58.190Z,64.08
2016-02-24T10:40:58.192Z,62.08
2016-02-24T10:41:58.195Z,62.56
2016-02-24T10:42:58.214Z,62.56
2016-02-24T10:43:58.200Z,62.27
2016-02-24T10:44:58.204Z,61.61
2016-02-24T10:45:58.206Z,60.28
2016-02-24T10:46:58.208Z,60.76
2016-02-24T10:47:58.195Z,60.76
2016-02-24T10:48:58.198Z,61.45
2016-02-24T10:49:58.200Z,60.5
2016-02-24T10:50:58.203Z,60.5
2016-02-24T10:51:58.206Z,57.65
2016-02-24T10:52:58.194Z,56.04
2016-02-24T10:53:58.212Z,55.66
2016-02-24T10:54:58.214Z,54.9
2016-02-24T10:55:58.216Z,54.61
2016-02-24T10:56:58.205Z,54.8
2016-02-24T10:57:58.207Z,56.04
2016-02-24T10:58:58.209Z,56.51
2016-02-24T10:59:58.213Z,57.56
2016-02-24T11:00:58.215Z,59.17
2016-02-24T11:01:58.202Z,60.22
2016-02-24T11:02:58.205Z,60.79
2016-02-24T11:03:58.207Z,59.46
2016-02-24T11:04:58.210Z,58.95
2016-02-24T11:05:58.213Z,60
2016-02-24T11:06:58.246Z,61.23
2016-02-24T11:07:58.202Z,60.95
2016-02-24T11:08:58.204Z,61.14
2016-02-24T11:09:58.223Z,62.37
2016-02-24T11:10:58.210Z,62.75
2016-02-24T11:11:58.213Z,62.46
2016-02-24T11:12:58.201Z,61.23
2016-02-24T11:13:58.219Z,60.19
2016-02-24T11:14:58.253Z,60.38
2016-02-24T11:15:58.209Z,59.91
2016-02-24T11:16:58.212Z,60.35
2016-02-24T11:17:58.198Z,61.52
2016-02-24T11:18:58.200Z,60.28
2016-02-24T11:19:58.204Z,60.28
2016-02-24T11:20:58.206Z,60.57
2016-02-24T11:21:58.208Z,60.76
2016-02-24T11:22:58.212Z,60.19
2016-02-24T11:23:58.214Z,60.66
2016-02-24T11:24:58.202Z,60.28
2016-02-24T11:25:58.204Z,60
2016-02-24T11:26:58.207Z,58.67
2016-02-24T11:27:58.210Z,58.2
2016-02-24T11:28:58.228Z,56.87
2016-02-24T11:29:58.215Z,57.34
2016-02-24T11:30:58.232Z,56.77
2016-02-24T11:31:58.221Z,56.2
2016-02-24T11:32:58.207Z,55.91
2016-02-24T11:33:58.209Z,56.77
2016-02-24T11:34:58.229Z,57.91
2016-02-24T11:35:58.215Z,57.15
2016-02-24T11:36:58.218Z,56.58
2016-02-24T11:37:58.221Z,56.49
2016-02-24T11:38:58.207Z,56.29
2016-02-24T11:39:58.210Z,56.49
2016-02-24T11:40:58.213Z,58
2016-02-24T11:41:58.200Z,58.86
2016-02-24T11:42:58.203Z,58.29
2016-02-24T11:43:58.190Z,57.53
2016-02-24T11:44:58.208Z,57.43
2016-02-24T11:45:58.211Z,57.81
2016-02-24T11:46:58.214Z,57.62
2016-02-24T11:47:58.200Z,57.72
2016-02-24T11:48:58.204Z,56.96
2016-02-24T11:49:58.206Z,57.53
2016-02-24T11:50:58.192Z,58.1
2016-02-24T11:51:58.195Z,58.58
2016-02-24T11:52:58.198Z,58.29
2016-02-24T11:53:58.201Z,58.76
2016-02-24T11:54:58.203Z,58.76
2016-02-24T11:55:58.206Z,57.53
2016-02-24T11:56:58.193Z,56.49
2016-02-24T11:57:58.197Z,56.77
2016-02-24T11:58:58.199Z,56.01
2016-02-24T11:59:58.201Z,56.1
2016-02-24T12:00:58.204Z,56.39
2016-02-24T12:01:58.191Z,54.87
2016-02-24T12:02:58.194Z,54.87
2016-02-24T12:03:58.197Z,54.11
2016-02-24T12:04:58.201Z,53.64
2016-02-24T12:05:58.204Z,53.64
2016-02-24T12:06:58.206Z,53.45
2016-02-24T12:07:58.209Z,54.68
2016-02-24T12:08:58.197Z,54.39
2016-02-24T12:09:58.200Z,54.68
2016-02-24T12:10:58.202Z,54.58
2016-02-24T12:11:58.205Z,54.97
2016-02-24T12:12:58.208Z,53.45
2016-02-24T12:13:58.194Z,53.95
2016-02-24T12:14:58.197Z,53.85
2016-02-24T12:15:58.200Z,53.57
2016-02-24T12:16:58.202Z,53.66
2016-02-24T12:17:58.189Z,53.09
2016-02-24T12:18:58.192Z,53.57
2016-02-24T12:19:58.242Z,53.85
2016-02-24T12:20:58.213Z,53.85
2016-02-24T12:21:58.216Z,53.47
2016-02-24T12:22:58.203Z,53
2016-02-24T12:23:58.205Z,53.66
2016-02-24T12:24:58.193Z,53.66
2016-02-24T12:25:58.196Z,54.33
2016-02-24T12:26:58.198Z,53.09
2016-02-24T12:27:58.201Z,52.81
2016-02-24T12:28:58.204Z,52.91
2016-02-24T12:29:58.190Z,52.62
2016-02-24T12:30:58.193Z,52.62
2016-02-24T12:31:58.196Z,51.48
2016-02-24T12:32:58.198Z,51.39
2016-02-24T12:33:58.201Z,51.01
2016-02-24T12:34:58.187Z,50.72
2016-02-24T12:35:58.190Z,50.43
2016-02-24T12:36:58.193Z,52.62
2016-02-24T12:37:58.227Z,52.33
2016-02-24T12:38:58.198Z,52.05
2016-02-24T12:39:58.218Z,53.09
2016-02-24T12:40:58.204Z,53.57
2016-02-24T12:41:58.191Z,53.47
2016-02-24T12:42:58.210Z,53.38
2016-02-24T12:43:58.197Z,53.28
2016-02-24T12:44:58.200Z,52.14
2016-02-24T12:45:58.203Z,52.81
2016-02-24T12:46:58.203Z,51.67
2016-02-24T12:47:58.211Z,51.86
2016-02-24T12:48:58.172Z,51.95
2016-02-24T12:49:58.180Z,52.24
2016-02-24T12:50:58.173Z,53.19
2016-02-24T12:51:58.150Z,53.28
2016-02-24T12:52:58.149Z,53.09
2016-02-24T12:53:58.148Z,52.62
2016-02-24T12:54:58.146Z,50.91
2016-02-24T12:55:58.146Z,50.34